Selby, South Dakota
Current Conditions -  °F | °C
As of 4:11 PM on Tuesday 25 Nov 2014 (Local Time) from KMBG Reporting Station
Light Snow Light Snow  
Wind Chill: 25°   Ceiling: 600
Heat Index: 33°   Visibility: 1.2mi
Dew Point: 31°   Wind: 10mph
Humidity: 92%   Direction: 180°S
Pressure: 29.71"   Gusts: NA
Location:  45.51°N, 100.03°W
Report Text: KMBG 252211Z AUTO 18009KT 1 1/4SM -SN BR BKN006 BKN018 OVC024 01/M01 A2971 RMK AO2 P0001 T00061006
Loading
Personal Weather Stations






























Interactive Weather Map New forecast layout! Learn more

10-Day Weather Forecast

Advertisements
Track Severe Weather on mobile